Domov               UVHVVR             MKGP            O straneh              
ZDRAVSTVENO VARSTVO RASTLIN
  MREŽA AGROMET. POSTAJ
 ► PROGNOSTIČNA OBVESTILA
AGROMETEOROLOŠKI PODATKI -
ARSO
OBVLADOVANJE TVEGANJ ZARADI
NEUGODNIH VREMENSKIH RAZMER
  ► NARAVNE NESREČE
  ► SUŠA/MOČA
  ► NAMAKANJE
  ► ŽLED (gozdarstvo)
KARTOGRAFSKI PRIKAZI
SPLETNE POVEZAVE
PROJEKTI IN PUBLIKACIJE

AGROMETEOROLOŠKA MREŽA: VREMENSKE POSTAJE IN FENOLOŠKA OPAZOVANJA

Pregled podatkov za lokacijo Zimica, meteorološka postaja 27472

Pregled senzorjev na lokaciji

ID Ime Zadnja
vrednost
Datum
zadnje
spremembe
Tip
senzorja
1715 Padavine (mm) 0 mm 25.2.2018 16:00 Generic 0.2 mm
1714 Relativna vlaga 2 m (% RH) 48,67 % RH 25.2.2018 16:00 Generic 0 - 100 %
1713 Temperatura 2 m (°C) -4,88 °C 25.2.2018 16:00 Generic -40 - +60 °C

Pregled podatkov zadnjih 24 ur

Zap.
št.
Datum in čas Zimica
Padavine Relativna
vlaga
2
m
Temperatura
2
m
1 25.2.2018 16:00
2 25.2.2018 15:30 0 47,7 -4,5
3 25.2.2018 15:00 0 44,7 -3,9
4 25.2.2018 14:30 0 44,8 -4,2
5 25.2.2018 14:00 0 45,4 -4,5
6 25.2.2018 13:30 0 45,7 -4,5
7 25.2.2018 13:00 0 46,6 -4,9
8 25.2.2018 12:30 0 47,8 -5,3
9 25.2.2018 12:00 0 50,2 -6
10 25.2.2018 11:30 0 50,4 -6,1
11 25.2.2018 11:00 0 51,1 -6,5
12 25.2.2018 10:30 0 51,6 -6,5
13 25.2.2018 10:00 0 51,4 -6,5
14 25.2.2018 09:30 0 53,2 -7,1
15 25.2.2018 09:00 0 54,9 -7,6
16 25.2.2018 08:30 0 61,6 -9,3
17 25.2.2018 08:00 0 69,7 -11,4
18 25.2.2018 07:30 0 68,2 -10,8
19 25.2.2018 07:00 0 68,4 -10,6
20 25.2.2018 06:30 0 67,2 -10,1
21 25.2.2018 06:00 0 66,9 -9,8
22 25.2.2018 05:30 0 66,3 -9,6
23 25.2.2018 05:00 0 65,6 -9,2
24 25.2.2018 04:30 0 66,5 -8,7
25 25.2.2018 04:00 0 69,2 -8,2
26 25.2.2018 03:30 0 68,4 -7,8
27 25.2.2018 03:00 0 67,1 -7,7
28 25.2.2018 02:30 0 66,6 -7,5
29 25.2.2018 02:00 0 66,9 -7,4
30 25.2.2018 01:30 0 66,1 -7,3
31 25.2.2018 01:00 0 62,5 -6,7
32 25.2.2018 00:30 0 61 -6
33 25.2.2018 00:00 0 57,5 -5,5
34 24.2.2018 23:30 0 56,8 -5,3
35 24.2.2018 23:00 0 58,3 -5,3
36 24.2.2018 22:30 0 57,1 -5,2
37 24.2.2018 22:00 0 58,8 -5
38 24.2.2018 21:30 0 64,4 -4,6
39 24.2.2018 21:00 0 68,1 -4,3
40 24.2.2018 20:30 0 69,4 -4,3
41 24.2.2018 20:00 0 77,2 -5,8
42 24.2.2018 19:30 0 78,9 -6,6
43 24.2.2018 19:00 0 75,9 -6
44 24.2.2018 18:30 0 70,2 -5
45 24.2.2018 18:00 0 68,7 -4,3
46 24.2.2018 17:30 0 71,8 -3,5
47 24.2.2018 17:00 0 67,3 -2
48 24.2.2018 16:30 0 65 -1,6
© 2011 Ministrstvo za kmetijstvo, gozdarstvo in prehrano. Vse pravice pridržane.